sensor_id;sensor_type;location;lat;lon;timestamp;P1;durP1;ratioP1;P2;durP2;ratioP2
71296;SDS011;59082;50.658;4.608;2023-07-24T06:07:46;3.63;;;1.90;;
71296;SDS011;59082;50.658;4.608;2023-07-24T06:10:12;4.80;;;2.22;;
71296;SDS011;59082;50.658;4.608;2023-07-24T06:12:37;3.57;;;1.93;;
71296;SDS011;59082;50.658;4.608;2023-07-24T06:15:03;2.83;;;1.40;;
71296;SDS011;59082;50.658;4.608;2023-07-24T06:17:28;2.90;;;1.65;;
71296;SDS011;59082;50.658;4.608;2023-07-24T06:19:54;2.83;;;1.70;;
71296;SDS011;59082;50.658;4.608;2023-07-24T06:22:19;4.50;;;2.08;;
71296;SDS011;59082;50.658;4.608;2023-07-24T06:24:45;3.77;;;2.37;;
71296;SDS011;59082;50.658;4.608;2023-07-24T06:27:10;3.43;;;1.90;;
71296;SDS011;59082;50.658;4.608;2023-07-24T06:29:35;2.47;;;1.43;;
71296;SDS011;59082;50.658;4.608;2023-07-24T06:32:01;3.10;;;1.63;;
71296;SDS011;59082;50.658;4.608;2023-07-24T06:34:26;3.20;;;1.47;;
71296;SDS011;59082;50.658;4.608;2023-07-24T06:36:51;2.67;;;2.13;;
71296;SDS011;59082;50.658;4.608;2023-07-24T06:39:17;3.67;;;2.03;;
71296;SDS011;59082;50.658;4.608;2023-07-24T06:41:42;3.03;;;1.80;;
71296;SDS011;59082;50.658;4.608;2023-07-24T06:44:08;2.60;;;2.00;;
71296;SDS011;59082;50.658;4.608;2023-07-24T06:46:33;4.10;;;2.00;;
71296;SDS011;59082;50.658;4.608;2023-07-24T06:48:59;2.77;;;1.90;;
71296;SDS011;59082;50.658;4.608;2023-07-24T06:51:24;3.70;;;2.17;;
71296;SDS011;59082;50.658;4.608;2023-07-24T06:53:49;4.22;;;2.15;;
71296;SDS011;59082;50.658;4.608;2023-07-24T06:56:15;2.90;;;1.90;;
71296;SDS011;59082;50.658;4.608;2023-07-24T06:58:40;2.40;;;1.70;;
71296;SDS011;59082;50.658;4.608;2023-07-24T07:01:06;4.30;;;2.57;;
71296;SDS011;59082;50.658;4.608;2023-07-24T07:03:31;3.95;;;2.72;;
71296;SDS011;59082;50.658;4.608;2023-07-24T07:06:00;3.60;;;2.90;;
71296;SDS011;59082;50.658;4.608;2023-07-24T07:08:25;4.57;;;2.42;;
71296;SDS011;59082;50.658;4.608;2023-07-24T07:10:59;7.73;;;2.23;;
71296;SDS011;59082;50.658;4.608;2023-07-24T07:13:25;4.82;;;2.50;;
71296;SDS011;59082;50.658;4.608;2023-07-24T07:15:51;3.93;;;2.60;;
71296;SDS011;59082;50.658;4.608;2023-07-24T07:18:16;6.93;;;2.63;;
71296;SDS011;59082;50.658;4.608;2023-07-24T07:20:48;3.97;;;2.17;;
71296;SDS011;59082;50.658;4.608;2023-07-24T07:23:13;2.90;;;2.50;;
71296;SDS011;59082;50.658;4.608;2023-07-24T07:25:39;4.37;;;2.50;;
71296;SDS011;59082;50.658;4.608;2023-07-24T07:28:04;7.80;;;3.37;;
71296;SDS011;59082;50.658;4.608;2023-07-24T07:30:29;6.10;;;2.37;;
71296;SDS011;59082;50.658;4.608;2023-07-24T07:32:54;5.00;;;2.37;;
71296;SDS011;59082;50.658;4.608;2023-07-24T07:35:20;4.53;;;2.70;;
71296;SDS011;59082;50.658;4.608;2023-07-24T07:37:45;6.67;;;2.93;;
71296;SDS011;59082;50.658;4.608;2023-07-24T07:40:11;5.93;;;2.87;;
71296;SDS011;59082;50.658;4.608;2023-07-24T07:42:36;4.15;;;2.70;;
71296;SDS011;59082;50.658;4.608;2023-07-24T07:45:01;2.77;;;1.93;;
71296;SDS011;59082;50.658;4.608;2023-07-24T07:47:27;2.70;;;2.00;;
71296;SDS011;59082;50.658;4.608;2023-07-24T07:49:52;3.33;;;2.40;;
71296;SDS011;59082;50.658;4.608;2023-07-24T07:52:17;2.73;;;2.23;;
71296;SDS011;59082;50.658;4.608;2023-07-24T07:54:46;3.20;;;1.75;;
71296;SDS011;59082;50.658;4.608;2023-07-24T07:57:12;4.50;;;1.57;;
71296;SDS011;59082;50.658;4.608;2023-07-24T07:59:37;2.85;;;1.50;;
71296;SDS011;59082;50.658;4.608;2023-07-24T08:02:03;2.90;;;1.97;;
71296;SDS011;59082;50.658;4.608;2023-07-24T08:04:28;3.27;;;2.33;;
71296;SDS011;59082;50.658;4.608;2023-07-24T08:06:53;2.87;;;1.70;;
71296;SDS011;59082;50.658;4.608;2023-07-24T08:09:19;3.53;;;1.90;;
71296;SDS011;59082;50.658;4.608;2023-07-24T08:11:46;5.05;;;1.80;;
71296;SDS011;59082;50.658;4.608;2023-07-24T08:14:11;2.67;;;1.93;;
71296;SDS011;59082;50.658;4.608;2023-07-24T08:16:37;4.00;;;1.83;;
71296;SDS011;59082;50.658;4.608;2023-07-24T08:19:02;3.23;;;1.97;;
71296;SDS011;59082;50.658;4.608;2023-07-24T08:21:27;4.73;;;2.13;;
71296;SDS011;59082;50.658;4.608;2023-07-24T08:23:53;3.20;;;1.80;;
71296;SDS011;59082;50.658;4.608;2023-07-24T08:26:18;3.87;;;2.07;;
71296;SDS011;59082;50.658;4.608;2023-07-24T08:28:43;5.07;;;2.83;;
71296;SDS011;59082;50.658;4.608;2023-07-24T08:31:09;5.13;;;2.30;;
71296;SDS011;59082;50.658;4.608;2023-07-24T08:33:34;2.90;;;1.73;;
71296;SDS011;59082;50.658;4.608;2023-07-24T08:36:00;3.60;;;1.90;;
71296;SDS011;59082;50.658;4.608;2023-07-24T08:38:26;5.07;;;2.30;;
71296;SDS011;59082;50.658;4.608;2023-07-24T08:41:11;4.20;;;1.60;;
71296;SDS011;59082;50.658;4.608;2023-07-24T08:43:37;4.57;;;2.20;;
71296;SDS011;59082;50.658;4.608;2023-07-24T08:46:03;4.13;;;2.13;;
71296;SDS011;59082;50.658;4.608;2023-07-24T08:48:30;6.60;;;2.15;;
71296;SDS011;59082;50.658;4.608;2023-07-24T08:50:56;5.13;;;2.00;;
71296;SDS011;59082;50.658;4.608;2023-07-24T08:53:23;3.78;;;2.10;;
71296;SDS011;59082;50.658;4.608;2023-07-24T08:55:49;3.40;;;1.73;;
71296;SDS011;59082;50.658;4.608;2023-07-24T08:58:17;4.60;;;2.47;;
71296;SDS011;59082;50.658;4.608;2023-07-24T09:00:42;3.03;;;1.90;;
71296;SDS011;59082;50.658;4.608;2023-07-24T09:03:08;4.73;;;2.47;;
71296;SDS011;59082;50.658;4.608;2023-07-24T09:05:33;6.47;;;1.90;;
71296;SDS011;59082;50.658;4.608;2023-07-24T09:07:59;3.07;;;1.20;;
71296;SDS011;59082;50.658;4.608;2023-07-24T09:10:24;1.90;;;0.73;;
71296;SDS011;59082;50.658;4.608;2023-07-24T09:12:50;1.92;;;1.08;;
71296;SDS011;59082;50.658;4.608;2023-07-24T09:15:15;3.80;;;0.73;;
71296;SDS011;59082;50.658;4.608;2023-07-24T09:17:48;1.13;;;0.80;;
71296;SDS011;59082;50.658;4.608;2023-07-24T09:20:13;1.83;;;0.40;;
71296;SDS011;59082;50.658;4.608;2023-07-24T09:22:47;1.13;;;0.50;;
71296;SDS011;59082;50.658;4.608;2023-07-24T09:25:12;1.10;;;1.00;;
71296;SDS011;59082;50.658;4.608;2023-07-24T09:27:37;3.10;;;1.00;;
71296;SDS011;59082;50.658;4.608;2023-07-24T09:30:11;0.50;;;0.20;;
71296;SDS011;59082;50.658;4.608;2023-07-24T09:32:36;1.38;;;0.47;;
71296;SDS011;59082;50.658;4.608;2023-07-24T09:35:03;2.50;;;0.50;;
71296;SDS011;59082;50.658;4.608;2023-07-24T09:37:34;1.20;;;0.50;;
71296;SDS011;59082;50.658;4.608;2023-07-24T09:39:59;1.33;;;0.80;;
71296;SDS011;59082;50.658;4.608;2023-07-24T09:42:31;1.20;;;0.73;;
71296;SDS011;59082;50.658;4.608;2023-07-24T09:44:57;3.22;;;1.00;;
71296;SDS011;59082;50.658;4.608;2023-07-24T09:47:22;9.73;;;1.93;;
71296;SDS011;59082;50.658;4.608;2023-07-24T09:49:48;1.70;;;1.00;;
71296;SDS011;59082;50.658;4.608;2023-07-24T09:52:13;4.30;;;1.20;;
71296;SDS011;59082;50.658;4.608;2023-07-24T09:54:43;2.00;;;1.00;;
71296;SDS011;59082;50.658;4.608;2023-07-24T09:57:11;4.07;;;1.95;;
71296;SDS011;59082;50.658;4.608;2023-07-24T09:59:37;2.60;;;1.67;;
71296;SDS011;59082;50.658;4.608;2023-07-24T10:02:04;2.58;;;1.65;;
71296;SDS011;59082;50.658;4.608;2023-07-24T10:04:32;3.08;;;1.98;;
71296;SDS011;59082;50.658;4.608;2023-07-24T10:06:59;5.18;;;2.50;;
71296;SDS011;59082;50.658;4.608;2023-07-24T10:09:24;3.90;;;1.97;;
71296;SDS011;59082;50.658;4.608;2023-07-24T10:11:49;2.80;;;1.70;;
71296;SDS011;59082;50.658;4.608;2023-07-24T10:14:15;3.10;;;2.07;;
71296;SDS011;59082;50.658;4.608;2023-07-24T10:16:41;4.85;;;2.40;;
71296;SDS011;59082;50.658;4.608;2023-07-24T10:19:13;3.43;;;2.70;;
71296;SDS011;59082;50.658;4.608;2023-07-24T10:21:43;5.15;;;2.53;;
71296;SDS011;59082;50.658;4.608;2023-07-24T10:24:09;3.67;;;2.47;;
71296;SDS011;59082;50.658;4.608;2023-07-24T10:26:34;3.27;;;1.87;;
71296;SDS011;59082;50.658;4.608;2023-07-24T10:29:00;2.87;;;1.67;;
71296;SDS011;59082;50.658;4.608;2023-07-24T10:31:25;2.40;;;1.93;;
71296;SDS011;59082;50.658;4.608;2023-07-24T10:33:55;2.20;;;1.60;;
71296;SDS011;59082;50.658;4.608;2023-07-24T10:36:22;2.85;;;1.75;;
71296;SDS011;59082;50.658;4.608;2023-07-24T10:38:54;3.92;;;2.67;;
71296;SDS011;59082;50.658;4.608;2023-07-24T10:41:20;2.72;;;2.03;;
71296;SDS011;59082;50.658;4.608;2023-07-24T10:43:50;4.80;;;1.70;;
71296;SDS011;59082;50.658;4.608;2023-07-24T10:46:17;2.60;;;1.58;;
71296;SDS011;59082;50.658;4.608;2023-07-24T10:48:44;2.97;;;2.23;;
71296;SDS011;59082;50.658;4.608;2023-07-24T10:51:10;2.42;;;2.13;;
71296;SDS011;59082;50.658;4.608;2023-07-24T10:53:36;3.95;;;2.22;;
71296;SDS011;59082;50.658;4.608;2023-07-24T10:56:02;3.72;;;3.15;;
71296;SDS011;59082;50.658;4.608;2023-07-24T10:58:28;2.70;;;2.10;;
71296;SDS011;59082;50.658;4.608;2023-07-24T11:00:55;3.75;;;2.42;;
71296;SDS011;59082;50.658;4.608;2023-07-24T11:03:21;3.67;;;1.30;;
71296;SDS011;59082;50.658;4.608;2023-07-24T11:05:46;1.67;;;1.37;;
71296;SDS011;59082;50.658;4.608;2023-07-24T11:08:12;1.90;;;1.07;;
71296;SDS011;59082;50.658;4.608;2023-07-24T11:10:45;2.92;;;1.95;;
71296;SDS011;59082;50.658;4.608;2023-07-24T11:13:11;2.00;;;1.13;;
71296;SDS011;59082;50.658;4.608;2023-07-24T11:15:36;1.77;;;0.80;;
71296;SDS011;59082;50.658;4.608;2023-07-24T11:18:02;2.17;;;1.43;;
71296;SDS011;59082;50.658;4.608;2023-07-24T11:20:27;2.30;;;1.30;;
71296;SDS011;59082;50.658;4.608;2023-07-24T11:22:52;2.17;;;1.00;;
71296;SDS011;59082;50.658;4.608;2023-07-24T11:25:18;1.93;;;1.10;;
71296;SDS011;59082;50.658;4.608;2023-07-24T11:27:43;3.30;;;1.50;;
71296;SDS011;59082;50.658;4.608;2023-07-24T11:30:12;7.03;;;2.07;;
71296;SDS011;59082;50.658;4.608;2023-07-24T11:32:39;3.88;;;1.60;;
71296;SDS011;59082;50.658;4.608;2023-07-24T11:35:05;2.15;;;1.65;;
71296;SDS011;59082;50.658;4.608;2023-07-24T11:37:31;2.50;;;1.85;;
71296;SDS011;59082;50.658;4.608;2023-07-24T11:39:58;3.80;;;2.17;;
71296;SDS011;59082;50.658;4.608;2023-07-24T11:42:24;3.10;;;2.00;;
71296;SDS011;59082;50.658;4.608;2023-07-24T11:44:50;3.75;;;1.55;;
71296;SDS011;59082;50.658;4.608;2023-07-24T11:47:15;2.53;;;1.93;;
71296;SDS011;59082;50.658;4.608;2023-07-24T11:49:42;1.85;;;1.60;;
71296;SDS011;59082;50.658;4.608;2023-07-24T11:52:13;2.25;;;1.85;;
71296;SDS011;59082;50.658;4.608;2023-07-24T11:54:38;2.80;;;1.87;;
71296;SDS011;59082;50.658;4.608;2023-07-24T11:57:04;2.90;;;1.70;;
71296;SDS011;59082;50.658;4.608;2023-07-24T11:59:39;3.25;;;1.75;;
71296;SDS011;59082;50.658;4.608;2023-07-24T12:02:04;3.27;;;2.30;;
71296;SDS011;59082;50.658;4.608;2023-07-24T12:04:30;2.38;;;1.85;;
71296;SDS011;59082;50.658;4.608;2023-07-24T12:06:56;2.67;;;2.47;;
71296;SDS011;59082;50.658;4.608;2023-07-24T12:09:23;2.30;;;1.48;;
71296;SDS011;59082;50.658;4.608;2023-07-24T12:11:57;4.63;;;2.38;;
71296;SDS011;59082;50.658;4.608;2023-07-24T12:14:23;2.10;;;1.53;;
71296;SDS011;59082;50.658;4.608;2023-07-24T12:16:49;2.53;;;1.33;;
71296;SDS011;59082;50.658;4.608;2023-07-24T12:19:14;2.23;;;0.87;;
71296;SDS011;59082;50.658;4.608;2023-07-24T12:21:40;2.37;;;1.77;;
71296;SDS011;59082;50.658;4.608;2023-07-24T12:24:05;3.15;;;1.92;;
71296;SDS011;59082;50.658;4.608;2023-07-24T12:26:31;2.00;;;1.80;;
71296;SDS011;59082;50.658;4.608;2023-07-24T12:28:56;3.13;;;2.23;;
71296;SDS011;59082;50.658;4.608;2023-07-24T12:31:24;3.88;;;1.20;;
71296;SDS011;59082;50.658;4.608;2023-07-24T12:33:50;3.43;;;1.77;;
71296;SDS011;59082;50.658;4.608;2023-07-24T12:36:15;2.65;;;1.80;;
71296;SDS011;59082;50.658;4.608;2023-07-24T12:38:40;2.17;;;0.90;;
71296;SDS011;59082;50.658;4.608;2023-07-24T12:41:06;2.70;;;1.23;;
71296;SDS011;59082;50.658;4.608;2023-07-24T12:43:32;1.53;;;0.90;;
71296;SDS011;59082;50.658;4.608;2023-07-24T12:45:57;2.30;;;1.47;;
71296;SDS011;59082;50.658;4.608;2023-07-24T12:48:23;3.25;;;1.42;;
71296;SDS011;59082;50.658;4.608;2023-07-24T12:50:48;3.83;;;1.67;;
71296;SDS011;59082;50.658;4.608;2023-07-24T12:53:14;3.83;;;1.63;;
71296;SDS011;59082;50.658;4.608;2023-07-24T12:55:39;4.35;;;1.73;;
71296;SDS011;59082;50.658;4.608;2023-07-24T12:58:04;2.10;;;1.27;;
71296;SDS011;59082;50.658;4.608;2023-07-24T13:00:30;3.20;;;1.40;;
71296;SDS011;59082;50.658;4.608;2023-07-24T13:02:56;5.40;;;1.30;;
71296;SDS011;59082;50.658;4.608;2023-07-24T13:05:22;1.90;;;1.30;;
71296;SDS011;59082;50.658;4.608;2023-07-24T13:07:47;3.85;;;2.17;;
71296;SDS011;59082;50.658;4.608;2023-07-24T13:10:13;3.47;;;1.93;;
71296;SDS011;59082;50.658;4.608;2023-07-24T13:12:38;3.70;;;2.27;;
71296;SDS011;59082;50.658;4.608;2023-07-24T13:15:04;4.23;;;1.90;;
71296;SDS011;59082;50.658;4.608;2023-07-24T13:17:30;2.90;;;1.73;;
71296;SDS011;59082;50.658;4.608;2023-07-24T13:19:56;2.30;;;2.03;;
71296;SDS011;59082;50.658;4.608;2023-07-24T13:22:21;2.10;;;1.70;;
71296;SDS011;59082;50.658;4.608;2023-07-24T13:24:46;2.83;;;1.70;;
71296;SDS011;59082;50.658;4.608;2023-07-24T13:27:12;4.30;;;1.77;;
71296;SDS011;59082;50.658;4.608;2023-07-24T13:29:37;3.85;;;2.22;;
71296;SDS011;59082;50.658;4.608;2023-07-24T13:32:03;2.27;;;1.60;;
71296;SDS011;59082;50.658;4.608;2023-07-24T13:34:29;2.67;;;1.95;;
71296;SDS011;59082;50.658;4.608;2023-07-24T13:36:54;4.13;;;2.30;;
71296;SDS011;59082;50.658;4.608;2023-07-24T13:39:19;5.83;;;2.93;;
71296;SDS011;59082;50.658;4.608;2023-07-24T13:41:45;5.60;;;2.92;;
71296;SDS011;59082;50.658;4.608;2023-07-24T13:44:10;6.37;;;2.97;;
71296;SDS011;59082;50.658;4.608;2023-07-24T13:46:36;4.07;;;2.93;;
71296;SDS011;59082;50.658;4.608;2023-07-24T13:49:01;4.60;;;3.27;;
71296;SDS011;59082;50.658;4.608;2023-07-24T13:51:28;6.72;;;3.03;;
71296;SDS011;59082;50.658;4.608;2023-07-24T13:53:53;4.37;;;3.03;;
71296;SDS011;59082;50.658;4.608;2023-07-24T13:56:19;4.80;;;2.70;;
71296;SDS011;59082;50.658;4.608;2023-07-24T13:58:47;4.07;;;3.03;;
71296;SDS011;59082;50.658;4.608;2023-07-24T14:01:13;3.37;;;2.90;;
71296;SDS011;59082;50.658;4.608;2023-07-24T14:03:38;4.57;;;2.77;;
71296;SDS011;59082;50.658;4.608;2023-07-24T14:06:03;5.10;;;2.83;;
71296;SDS011;59082;50.658;4.608;2023-07-24T14:08:29;2.63;;;2.13;;
71296;SDS011;59082;50.658;4.608;2023-07-24T14:10:55;4.70;;;2.40;;
71296;SDS011;59082;50.658;4.608;2023-07-24T14:13:20;2.97;;;1.60;;
71296;SDS011;59082;50.658;4.608;2023-07-24T14:15:46;3.77;;;2.33;;
71296;SDS011;59082;50.658;4.608;2023-07-24T14:18:11;3.30;;;2.50;;
71296;SDS011;59082;50.658;4.608;2023-07-24T14:20:37;3.15;;;2.03;;
71296;SDS011;59082;50.658;4.608;2023-07-24T14:23:04;2.55;;;1.08;;
71296;SDS011;59082;50.658;4.608;2023-07-24T14:25:30;2.60;;;2.17;;
71296;SDS011;59082;50.658;4.608;2023-07-24T14:27:55;3.63;;;1.97;;
71296;SDS011;59082;50.658;4.608;2023-07-24T14:30:21;2.73;;;1.93;;
71296;SDS011;59082;50.658;4.608;2023-07-24T14:32:46;2.92;;;1.48;;
71296;SDS011;59082;50.658;4.608;2023-07-24T14:35:12;3.10;;;1.50;;
71296;SDS011;59082;50.658;4.608;2023-07-24T14:37:37;1.73;;;1.60;;
71296;SDS011;59082;50.658;4.608;2023-07-24T14:40:04;4.20;;;1.52;;
71296;SDS011;59082;50.658;4.608;2023-07-24T14:42:30;1.40;;;1.30;;
71296;SDS011;59082;50.658;4.608;2023-07-24T14:44:55;1.77;;;1.30;;
71296;SDS011;59082;50.658;4.608;2023-07-24T14:47:26;1.75;;;1.13;;
71296;SDS011;59082;50.658;4.608;2023-07-24T14:49:52;2.83;;;1.40;;
71296;SDS011;59082;50.658;4.608;2023-07-24T14:52:17;3.73;;;1.20;;
71296;SDS011;59082;50.658;4.608;2023-07-24T14:54:43;1.00;;;0.87;;
71296;SDS011;59082;50.658;4.608;2023-07-24T14:57:08;2.93;;;1.17;;
71296;SDS011;59082;50.658;4.608;2023-07-24T14:59:36;1.50;;;0.63;;
71296;SDS011;59082;50.658;4.608;2023-07-24T15:02:02;4.57;;;1.00;;
71296;SDS011;59082;50.658;4.608;2023-07-24T15:04:28;1.83;;;1.02;;
71296;SDS011;59082;50.658;4.608;2023-07-24T15:06:53;1.53;;;0.80;;
71296;SDS011;59082;50.658;4.608;2023-07-24T15:09:18;1.60;;;1.10;;
71296;SDS011;59082;50.658;4.608;2023-07-24T15:11:44;1.47;;;1.07;;
71296;SDS011;59082;50.658;4.608;2023-07-24T15:14:09;1.55;;;0.80;;
71296;SDS011;59082;50.658;4.608;2023-07-24T15:16:35;1.10;;;0.90;;
71296;SDS011;59082;50.658;4.608;2023-07-24T15:19:00;1.10;;;0.67;;
71296;SDS011;59082;50.658;4.608;2023-07-24T15:21:26;2.25;;;1.10;;
71296;SDS011;59082;50.658;4.608;2023-07-24T15:23:51;1.97;;;0.70;;
71296;SDS011;59082;50.658;4.608;2023-07-24T15:26:17;1.58;;;0.60;;
71296;SDS011;59082;50.658;4.608;2023-07-24T15:28:43;1.33;;;1.00;;
71296;SDS011;59082;50.658;4.608;2023-07-24T15:31:09;1.52;;;0.52;;
71296;SDS011;59082;50.658;4.608;2023-07-24T15:33:34;37.10;;;2.73;;
71296;SDS011;59082;50.658;4.608;2023-07-24T15:36:00;1.63;;;0.63;;
71296;SDS011;59082;50.658;4.608;2023-07-24T15:38:26;1.33;;;0.60;;
71296;SDS011;59082;50.658;4.608;2023-07-24T15:40:51;2.80;;;0.63;;
71296;SDS011;59082;50.658;4.608;2023-07-24T15:43:16;2.00;;;0.43;;
71296;SDS011;59082;50.658;4.608;2023-07-24T15:45:42;2.00;;;0.53;;
71296;SDS011;59082;50.658;4.608;2023-07-24T15:48:07;1.05;;;0.60;;
71296;SDS011;59082;50.658;4.608;2023-07-24T15:50:33;3.50;;;0.60;;
71296;SDS011;59082;50.658;4.608;2023-07-24T15:52:58;1.70;;;0.80;;
71296;SDS011;59082;50.658;4.608;2023-07-24T15:55:24;0.98;;;0.45;;
71296;SDS011;59082;50.658;4.608;2023-07-24T15:57:49;1.83;;;0.57;;
71296;SDS011;59082;50.658;4.608;2023-07-24T16:00:15;2.10;;;0.70;;
71296;SDS011;59082;50.658;4.608;2023-07-24T16:02:41;2.15;;;0.70;;
71296;SDS011;59082;50.658;4.608;2023-07-24T16:05:16;1.00;;;0.90;;
71296;SDS011;59082;50.658;4.608;2023-07-24T16:07:46;2.88;;;0.65;;
71296;SDS011;59082;50.658;4.608;2023-07-24T16:10:13;1.40;;;1.13;;
71296;SDS011;59082;50.658;4.608;2023-07-24T16:12:39;2.57;;;0.93;;
71296;SDS011;59082;50.658;4.608;2023-07-24T16:15:09;2.42;;;1.23;;
71296;SDS011;59082;50.658;4.608;2023-07-24T16:17:35;1.17;;;0.95;;
71296;SDS011;59082;50.658;4.608;2023-07-24T16:20:01;3.42;;;0.98;;
71296;SDS011;59082;50.658;4.608;2023-07-24T16:22:27;1.65;;;1.55;;
71296;SDS011;59082;50.658;4.608;2023-07-24T16:24:53;5.83;;;2.03;;
71296;SDS011;59082;50.658;4.608;2023-07-24T16:27:19;5.93;;;2.05;;
71296;SDS011;59082;50.658;4.608;2023-07-24T16:29:44;6.47;;;2.40;;
71296;SDS011;59082;50.658;4.608;2023-07-24T16:32:10;2.70;;;1.90;;
71296;SDS011;59082;50.658;4.608;2023-07-24T16:34:35;2.92;;;1.77;;
71296;SDS011;59082;50.658;4.608;2023-07-24T16:37:04;2.90;;;1.33;;
71296;SDS011;59082;50.658;4.608;2023-07-24T16:39:30;2.60;;;1.95;;
71296;SDS011;59082;50.658;4.608;2023-07-24T16:41:56;3.85;;;2.38;;
71296;SDS011;59082;50.658;4.608;2023-07-24T16:44:22;3.97;;;2.17;;
71296;SDS011;59082;50.658;4.608;2023-07-24T16:46:47;4.10;;;2.22;;
71296;SDS011;59082;50.658;4.608;2023-07-24T16:49:13;3.07;;;1.93;;
71296;SDS011;59082;50.658;4.608;2023-07-24T16:51:38;3.37;;;1.90;;
71296;SDS011;59082;50.658;4.608;2023-07-24T16:54:04;3.50;;;1.77;;
71296;SDS011;59082;50.658;4.608;2023-07-24T16:56:30;5.10;;;2.03;;
71296;SDS011;59082;50.658;4.608;2023-07-24T16:58:55;3.67;;;2.08;;
71296;SDS011;59082;50.658;4.608;2023-07-24T17:01:21;5.00;;;2.40;;
71296;SDS011;59082;50.658;4.608;2023-07-24T17:03:46;3.13;;;1.90;;
71296;SDS011;59082;50.658;4.608;2023-07-24T17:06:12;2.87;;;2.03;;
71296;SDS011;59082;50.658;4.608;2023-07-24T17:08:37;3.10;;;2.43;;
71296;SDS011;59082;50.658;4.608;2023-07-24T17:11:03;4.03;;;1.70;;
71296;SDS011;59082;50.658;4.608;2023-07-24T17:13:29;2.30;;;1.80;;
71296;SDS011;59082;50.658;4.608;2023-07-24T17:15:55;4.00;;;2.30;;
71296;SDS011;59082;50.658;4.608;2023-07-24T17:18:20;3.00;;;2.43;;
71296;SDS011;59082;50.658;4.608;2023-07-24T17:20:45;3.77;;;2.70;;
71296;SDS011;59082;50.658;4.608;2023-07-24T17:23:13;3.00;;;2.30;;
71296;SDS011;59082;50.658;4.608;2023-07-24T17:25:39;3.23;;;1.87;;
71296;SDS011;59082;50.658;4.608;2023-07-24T17:28:05;4.23;;;3.27;;
71296;SDS011;59082;50.658;4.608;2023-07-24T17:30:30;4.72;;;3.17;;
71296;SDS011;59082;50.658;4.608;2023-07-24T17:32:57;5.97;;;3.47;;
71296;SDS011;59082;50.658;4.608;2023-07-24T17:35:23;5.05;;;3.63;;
71296;SDS011;59082;50.658;4.608;2023-07-24T17:37:48;3.57;;;3.27;;
71296;SDS011;59082;50.658;4.608;2023-07-24T17:40:14;4.27;;;3.20;;
71296;SDS011;59082;50.658;4.608;2023-07-24T17:42:39;4.67;;;3.37;;
71296;SDS011;59082;50.658;4.608;2023-07-24T17:45:05;4.93;;;3.65;;
71296;SDS011;59082;50.658;4.608;2023-07-24T17:47:30;6.33;;;3.53;;
71296;SDS011;59082;50.658;4.608;2023-07-24T17:49:56;5.32;;;3.75;;
71296;SDS011;59082;50.658;4.608;2023-07-24T17:52:21;8.13;;;3.87;;
71296;SDS011;59082;50.658;4.608;2023-07-24T17:54:49;8.13;;;3.88;;
71296;SDS011;59082;50.658;4.608;2023-07-24T17:57:14;6.77;;;3.57;;
71296;SDS011;59082;50.658;4.608;2023-07-24T17:59:40;6.60;;;4.30;;
71296;SDS011;59082;50.658;4.608;2023-07-24T18:02:06;7.07;;;4.20;;
71296;SDS011;59082;50.658;4.608;2023-07-24T18:04:32;6.57;;;4.43;;
71296;SDS011;59082;50.658;4.608;2023-07-24T18:06:58;6.93;;;4.63;;
71296;SDS011;59082;50.658;4.608;2023-07-24T18:09:24;7.70;;;4.30;;
71296;SDS011;59082;50.658;4.608;2023-07-24T18:11:50;6.32;;;5.05;;
71296;SDS011;59082;50.658;4.608;2023-07-24T18:14:16;8.00;;;4.47;;
71296;SDS011;59082;50.658;4.608;2023-07-24T18:16:44;8.45;;;5.28;;
71296;SDS011;59082;50.658;4.608;2023-07-24T18:19:10;8.13;;;5.17;;
71296;SDS011;59082;50.658;4.608;2023-07-24T18:21:36;9.25;;;5.57;;
71296;SDS011;59082;50.658;4.608;2023-07-24T18:24:01;6.13;;;4.80;;
71296;SDS011;59082;50.658;4.608;2023-07-24T18:26:32;7.13;;;5.10;;
71296;SDS011;59082;50.658;4.608;2023-07-24T18:28:59;9.75;;;5.65;;
71296;SDS011;59082;50.658;4.608;2023-07-24T18:31:28;6.90;;;5.15;;
71296;SDS011;59082;50.658;4.608;2023-07-24T18:33:54;7.03;;;5.77;;
71296;SDS011;59082;50.658;4.608;2023-07-24T18:36:21;8.98;;;5.00;;
71296;SDS011;59082;50.658;4.608;2023-07-24T18:38:47;7.57;;;4.95;;
71296;SDS011;59082;50.658;4.608;2023-07-24T18:41:12;7.13;;;4.23;;
71296;SDS011;59082;50.658;4.608;2023-07-24T18:43:38;8.13;;;5.43;;
71296;SDS011;59082;50.658;4.608;2023-07-24T18:46:03;5.97;;;4.77;;
71296;SDS011;59082;50.658;4.608;2023-07-24T18:48:29;5.67;;;4.47;;
71296;SDS011;59082;50.658;4.608;2023-07-24T18:50:54;5.90;;;4.23;;
71296;SDS011;59082;50.658;4.608;2023-07-24T18:53:20;4.63;;;4.23;;
71296;SDS011;59082;50.658;4.608;2023-07-24T18:55:46;4.80;;;3.93;;
71296;SDS011;59082;50.658;4.608;2023-07-24T18:58:11;3.97;;;3.47;;
71296;SDS011;59082;50.658;4.608;2023-07-24T19:00:37;5.07;;;3.00;;
71296;SDS011;59082;50.658;4.608;2023-07-24T19:03:02;5.00;;;3.50;;
71296;SDS011;59082;50.658;4.608;2023-07-24T19:05:28;4.20;;;3.73;;
71296;SDS011;59082;50.658;4.608;2023-07-24T19:07:53;3.63;;;3.33;;
71296;SDS011;59082;50.658;4.608;2023-07-24T19:10:19;5.37;;;3.53;;
71296;SDS011;59082;50.658;4.608;2023-07-24T19:12:45;5.72;;;3.58;;
71296;SDS011;59082;50.658;4.608;2023-07-24T19:15:11;8.70;;;3.57;;
71296;SDS011;59082;50.658;4.608;2023-07-24T19:17:36;7.00;;;4.03;;
71296;SDS011;59082;50.658;4.608;2023-07-24T19:20:07;5.38;;;3.67;;
71296;SDS011;59082;50.658;4.608;2023-07-24T19:22:36;4.10;;;3.60;;
71296;SDS011;59082;50.658;4.608;2023-07-24T19:25:02;3.72;;;2.85;;
71296;SDS011;59082;50.658;4.608;2023-07-24T19:27:28;4.50;;;2.83;;
71296;SDS011;59082;50.658;4.608;2023-07-24T19:29:54;5.47;;;3.13;;
71296;SDS011;59082;50.658;4.608;2023-07-24T19:32:22;4.22;;;2.80;;
71296;SDS011;59082;50.658;4.608;2023-07-24T19:34:49;3.85;;;2.97;;
71296;SDS011;59082;50.658;4.608;2023-07-24T19:37:15;6.70;;;3.13;;
71296;SDS011;59082;50.658;4.608;2023-07-24T19:39:40;2.83;;;2.63;;
71296;SDS011;59082;50.658;4.608;2023-07-24T19:42:06;4.70;;;2.30;;
71296;SDS011;59082;50.658;4.608;2023-07-24T19:44:35;2.95;;;2.65;;
71296;SDS011;59082;50.658;4.608;2023-07-24T19:47:01;3.33;;;2.20;;
71296;SDS011;59082;50.658;4.608;2023-07-24T19:49:27;3.00;;;2.25;;
71296;SDS011;59082;50.658;4.608;2023-07-24T19:51:54;1.88;;;1.67;;
71296;SDS011;59082;50.658;4.608;2023-07-24T19:54:21;6.50;;;2.25;;
71296;SDS011;59082;50.658;4.608;2023-07-24T19:56:46;2.50;;;1.37;;
71296;SDS011;59082;50.658;4.608;2023-07-24T19:59:12;2.17;;;2.00;;
71296;SDS011;59082;50.658;4.608;2023-07-24T20:01:37;4.00;;;1.60;;
71296;SDS011;59082;50.658;4.608;2023-07-24T20:04:03;4.33;;;1.80;;
71296;SDS011;59082;50.658;4.608;2023-07-24T20:06:28;5.97;;;2.20;;
71296;SDS011;59082;50.658;4.608;2023-07-24T20:08:54;3.20;;;2.35;;
71296;SDS011;59082;50.658;4.608;2023-07-24T20:11:19;2.77;;;1.73;;
71296;SDS011;59082;50.658;4.608;2023-07-24T20:13:45;2.70;;;1.90;;
71296;SDS011;59082;50.658;4.608;2023-07-24T20:16:10;2.03;;;1.83;;
71296;SDS011;59082;50.658;4.608;2023-07-24T20:18:36;3.67;;;1.50;;
71296;SDS011;59082;50.658;4.608;2023-07-24T20:21:01;5.23;;;2.40;;
71296;SDS011;59082;50.658;4.608;2023-07-24T20:23:27;3.20;;;1.97;;
71296;SDS011;59082;50.658;4.608;2023-07-24T20:25:52;2.92;;;1.80;;
71296;SDS011;59082;50.658;4.608;2023-07-24T20:28:18;2.63;;;1.70;;
